createdAt,value
2019-02-28T00:00:47.007Z,6.20
2019-02-28T00:03:17.965Z,6.30
2019-02-28T00:05:47.759Z,6.50
2019-02-28T00:08:17.224Z,6.40
2019-02-28T00:10:46.539Z,6.40
2019-02-28T00:13:16.057Z,6.40
2019-02-28T00:15:45.905Z,6.20
2019-02-28T00:18:16.510Z,6.20
2019-02-28T00:20:46.306Z,6.10
2019-02-28T00:23:16.190Z,6.20
2019-02-28T00:25:45.609Z,6.10
2019-02-28T00:48:08.805Z,6.00
2019-02-28T00:50:39.282Z,5.80
2019-02-28T00:53:08.674Z,5.70
2019-02-28T00:55:38.300Z,5.90
2019-02-28T00:58:07.737Z,5.80
2019-02-28T01:00:38.187Z,5.80
2019-02-28T01:03:07.796Z,5.80
2019-02-28T01:05:37.425Z,5.70
2019-02-28T01:08:06.931Z,5.80
2019-02-28T01:10:39.211Z,5.90
2019-02-28T01:13:07.737Z,5.80
2019-02-28T01:15:37.119Z,5.90
2019-02-28T01:18:06.559Z,5.70
2019-02-28T01:20:36.155Z,5.60
2019-02-28T01:23:05.816Z,5.50
2019-02-28T01:25:37.167Z,5.40
2019-02-28T01:28:06.385Z,5.50
2019-02-28T01:30:37.082Z,5.50
2019-02-28T01:33:06.878Z,5.70
2019-02-28T01:35:37.511Z,5.60
2019-02-28T01:38:07.330Z,5.60
2019-02-28T01:40:37.740Z,5.40
2019-02-28T01:43:07.815Z,5.50
2019-02-28T01:45:37.220Z,5.40
2019-02-28T01:48:06.809Z,5.30
2019-02-28T01:50:36.308Z,5.20
2019-02-28T01:53:05.760Z,5.50
2019-02-28T01:55:35.135Z,5.40
2019-02-28T01:58:04.652Z,5.30
2019-02-28T02:00:34.131Z,5.30
2019-02-28T02:03:03.478Z,5.50
2019-02-28T02:05:32.865Z,5.50
2019-02-28T02:08:06.542Z,5.40
2019-02-28T02:10:34.858Z,5.40
2019-02-28T02:13:04.349Z,5.30
2019-02-28T02:15:33.949Z,5.50
2019-02-28T02:18:06.353Z,5.60
2019-02-28T02:20:34.430Z,5.60
2019-02-28T02:23:06.436Z,5.60
2019-02-28T02:25:37.481Z,5.50
2019-02-28T02:28:06.854Z,5.60
2019-02-28T02:30:36.236Z,5.50
2019-02-28T02:33:05.663Z,5.30
2019-02-28T02:35:35.141Z,5.30
2019-02-28T02:38:04.880Z,5.20
2019-02-28T02:40:34.438Z,5.40
2019-02-28T02:43:03.904Z,5.50
2019-02-28T02:45:33.211Z,5.70
2019-02-28T02:48:05.264Z,5.60
2019-02-28T02:50:35.803Z,5.60
2019-02-28T02:53:06.449Z,5.60
2019-02-28T02:55:35.778Z,5.80
2019-02-28T02:58:05.161Z,5.70
2019-02-28T03:00:36.350Z,5.70
2019-02-28T03:03:06.354Z,5.70
2019-02-28T03:05:37.227Z,5.70
2019-02-28T03:08:06.556Z,5.60
2019-02-28T03:10:36.226Z,5.90
2019-02-28T03:13:06.464Z,6.00
2019-02-28T03:15:36.093Z,5.90
2019-02-28T03:18:05.575Z,5.80
2019-02-28T03:20:35.225Z,5.70
2019-02-28T03:23:04.654Z,5.90
2019-02-28T03:25:34.101Z,5.90
2019-02-28T03:28:03.762Z,5.70
2019-02-28T03:30:33.873Z,5.80
2019-02-28T03:33:04.808Z,5.80
2019-02-28T03:35:43.571Z,6.00
2019-02-28T03:38:10.791Z,6.10
2019-02-28T03:40:40.230Z,6.00
2019-02-28T03:43:07.982Z,5.70
2019-02-28T03:45:37.460Z,5.70
2019-02-28T03:48:06.865Z,5.60
2019-02-28T03:50:36.381Z,5.50
2019-02-28T03:53:06.053Z,5.30
2019-02-28T03:55:39.873Z,5.30
2019-02-28T03:58:06.906Z,5.30
2019-02-28T04:00:36.341Z,5.40
2019-02-28T04:03:05.794Z,5.30
2019-02-28T04:05:35.151Z,5.60
2019-02-28T04:08:05.634Z,5.80
2019-02-28T04:10:35.017Z,5.90
2019-02-28T04:13:04.489Z,5.60
2019-02-28T04:15:33.951Z,5.30
2019-02-28T04:18:07.460Z,5.20
2019-02-28T04:20:37.476Z,5.20
2019-02-28T04:23:05.566Z,5.30
2019-02-28T04:25:34.890Z,5.30
2019-02-28T04:28:04.747Z,5.20
2019-02-28T04:30:34.549Z,5.20
2019-02-28T04:33:03.982Z,5.30
2019-02-28T04:35:33.311Z,5.30
2019-02-28T04:38:02.662Z,5.30
2019-02-28T04:40:33.078Z,5.30
2019-02-28T04:43:02.449Z,5.30
2019-02-28T04:45:31.764Z,5.20
2019-02-28T04:48:01.160Z,5.10
2019-02-28T04:50:32.072Z,5.30
2019-02-28T04:53:01.778Z,5.30
2019-02-28T04:55:31.100Z,5.20
2019-02-28T04:58:00.416Z,5.10
2019-02-28T05:00:29.780Z,5.00
2019-02-28T05:02:59.148Z,5.10
2019-02-28T05:05:28.477Z,5.20
2019-02-28T05:07:57.953Z,5.20
2019-02-28T05:10:28.517Z,5.00
2019-02-28T05:12:58.333Z,4.80
2019-02-28T05:15:27.887Z,4.80
2019-02-28T05:17:57.349Z,4.80
2019-02-28T05:20:27.174Z,4.80
2019-02-28T05:22:59.288Z,4.90
2019-02-28T05:25:27.861Z,4.90
2019-02-28T05:27:57.253Z,4.90
2019-02-28T05:30:26.583Z,4.90
2019-02-28T05:32:55.963Z,4.80
2019-02-28T05:35:26.637Z,4.80
2019-02-28T05:37:56.334Z,4.70
2019-02-28T05:40:25.707Z,4.80
2019-02-28T05:42:58.394Z,4.70
2019-02-28T05:45:26.099Z,4.80
2019-02-28T05:47:55.513Z,4.80
2019-02-28T05:50:25.152Z,4.80
2019-02-28T05:52:54.707Z,4.60
2019-02-28T05:55:25.615Z,4.70
2019-02-28T05:57:55.535Z,4.70
2019-02-28T06:00:25.590Z,4.80
2019-02-28T06:02:58.021Z,4.90
2019-02-28T06:05:26.005Z,4.80
2019-02-28T06:07:55.595Z,4.60
2019-02-28T06:10:25.011Z,4.60
2019-02-28T06:12:54.496Z,4.60
2019-02-28T06:15:24.173Z,4.60
2019-02-28T06:17:55.030Z,4.60
2019-02-28T06:20:25.221Z,4.50
2019-02-28T06:22:54.754Z,4.40
2019-02-28T06:25:25.680Z,4.40
2019-02-28T06:27:55.329Z,4.40
2019-02-28T06:30:27.865Z,4.50
2019-02-28T06:32:59.267Z,4.60
2019-02-28T06:35:28.660Z,4.60
2019-02-28T06:37:58.179Z,4.50
2019-02-28T06:40:32.561Z,4.50
2019-02-28T06:42:58.673Z,4.60
2019-02-28T06:45:28.130Z,4.80
2019-02-28T06:47:59.411Z,4.90
2019-02-28T06:50:28.694Z,5.10
2019-02-28T08:00:19.666Z,5.00
2019-02-28T08:02:49.271Z,8.60
2019-02-28T08:05:19.027Z,8.60
2019-02-28T08:17:50.783Z,8.70
2019-02-28T08:20:20.825Z,9.40
2019-02-28T08:22:50.710Z,9.60
2019-02-28T08:25:21.131Z,9.80
2019-02-28T08:27:51.704Z,9.90
2019-02-28T08:30:26.203Z,10.10
2019-02-28T08:32:56.631Z,9.90
2019-02-28T08:35:26.088Z,10.10
2019-02-28T08:37:57.262Z,10.20
2019-02-28T08:40:27.884Z,10.40
2019-02-28T08:42:57.522Z,10.30
2019-02-28T08:45:32.867Z,10.50
2019-02-28T08:47:58.038Z,10.50
2019-02-28T08:50:27.601Z,10.30
2019-02-28T08:53:01.998Z,10.50
2019-02-28T08:55:31.479Z,10.80
2019-02-28T08:58:05.358Z,10.90
2019-02-28T09:05:31.830Z,11.00
2019-02-28T09:33:00.949Z,11.10
2019-02-28T09:35:32.909Z,12.70
2019-02-28T09:45:34.666Z,12.60
2019-02-28T09:48:04.329Z,12.60
2019-02-28T09:55:35.370Z,12.50
2019-02-28T09:58:04.268Z,12.70
2019-02-28T10:00:34.020Z,12.70
2019-02-28T10:05:32.473Z,13.10
2019-02-28T10:10:33.128Z,13.60
2019-02-28T10:13:02.654Z,13.30
2019-02-28T10:15:32.222Z,13.70
2019-02-28T10:18:04.284Z,14.00
2019-02-28T10:20:38.288Z,13.80
2019-02-28T10:23:07.920Z,14.10
2019-02-28T10:25:42.548Z,14.20
2019-02-28T10:28:08.495Z,14.10
2019-02-28T10:30:37.973Z,14.50
2019-02-28T10:33:07.446Z,14.20
2019-02-28T10:35:37.711Z,14.00
2019-02-28T10:38:07.499Z,14.40
2019-02-28T10:40:37.035Z,14.60
2019-02-28T10:43:06.526Z,14.60
2019-02-28T10:45:41.049Z,14.60
2019-02-28T10:48:07.912Z,15.10
2019-02-28T10:50:38.717Z,15.30
2019-02-28T10:53:08.237Z,15.50
2019-02-28T10:55:37.801Z,15.80
2019-02-28T11:00:40.427Z,15.80
2019-02-28T11:20:48.435Z,16.20
2019-02-28T11:25:47.270Z,16.30
2019-02-28T11:28:17.118Z,17.00
2019-02-28T11:45:48.525Z,17.00
2019-02-28T11:58:21.042Z,17.50
2019-02-28T12:00:50.786Z,18.30
2019-02-28T12:08:19.961Z,18.10
2019-02-28T12:10:49.352Z,19.70
2019-02-28T12:13:21.168Z,19.80
2019-02-28T12:15:50.639Z,20.40
2019-02-28T12:18:21.542Z,19.40
2019-02-28T12:20:51.144Z,18.90
2019-02-28T12:23:23.460Z,18.60
2019-02-28T12:25:53.254Z,18.50
2019-02-28T12:28:22.687Z,18.60
2019-02-28T12:30:52.227Z,18.70
2019-02-28T12:33:23.302Z,18.80
2019-02-28T12:35:54.744Z,19.40
2019-02-28T12:38:29.094Z,19.00
2019-02-28T12:40:58.268Z,19.00
2019-02-28T12:45:59.811Z,19.00
2019-02-28T12:48:28.480Z,19.30
2019-02-28T12:50:57.958Z,19.30
2019-02-28T12:53:27.597Z,19.30
2019-02-28T12:58:26.076Z,19.10
2019-02-28T13:00:56.325Z,19.10
2019-02-28T13:03:26.537Z,19.40
2019-02-28T13:05:56.009Z,20.00
2019-02-28T13:08:25.424Z,20.10
2019-02-28T13:10:55.063Z,20.80
2019-02-28T13:13:27.740Z,20.40
2019-02-28T13:15:55.848Z,19.60
2019-02-28T13:20:54.289Z,19.60
2019-02-28T13:23:23.738Z,19.70
2019-02-28T13:25:59.105Z,19.70
2019-02-28T13:28:24.320Z,19.90
2019-02-28T13:30:53.727Z,20.00
2019-02-28T13:33:23.182Z,21.10
2019-02-28T13:35:52.596Z,20.40
2019-02-28T13:38:22.247Z,21.10
2019-02-28T13:43:22.483Z,21.70
2019-02-28T13:48:25.949Z,21.50
2019-02-28T13:50:53.891Z,21.90
2019-02-28T13:53:23.586Z,22.20
2019-02-28T13:55:57.791Z,21.60
2019-02-28T14:00:54.567Z,22.60
2019-02-28T14:03:24.731Z,21.60
2019-02-28T14:08:36.310Z,21.20
2019-02-28T14:11:10.143Z,20.30
2019-02-28T14:13:37.267Z,19.50
2019-02-28T14:16:06.749Z,19.20
2019-02-28T14:18:37.303Z,19.30
2019-02-28T14:21:06.892Z,20.10
2019-02-28T14:23:36.470Z,20.60
2019-02-28T14:26:06.128Z,20.50
2019-02-28T14:28:36.299Z,20.30
2019-02-28T14:31:05.826Z,20.10
2019-02-28T14:33:35.373Z,20.30
2019-02-28T14:36:07.418Z,20.80
2019-02-28T14:38:35.955Z,20.40
2019-02-28T14:41:07.996Z,20.10
2019-02-28T14:43:37.451Z,20.40
2019-02-28T14:46:06.906Z,21.00
2019-02-28T14:48:36.675Z,20.40
2019-02-28T14:51:07.723Z,20.40
2019-02-28T14:53:37.261Z,21.10
2019-02-28T14:56:07.265Z,21.40
2019-02-28T14:58:37.758Z,21.20
2019-02-28T15:01:08.495Z,21.00
2019-02-28T15:03:37.905Z,21.10
2019-02-28T15:06:07.432Z,21.10
2019-02-28T15:08:36.814Z,21.30
2019-02-28T15:11:10.013Z,21.10
2019-02-28T15:13:37.716Z,20.70
2019-02-28T15:16:07.309Z,20.60
2019-02-28T15:18:36.894Z,20.80
2019-02-28T15:21:07.485Z,20.60
2019-02-28T15:23:37.683Z,20.60
2019-02-28T15:26:07.071Z,20.90
2019-02-28T15:28:36.671Z,20.40
2019-02-28T15:31:08.629Z,20.60
2019-02-28T15:33:37.389Z,20.50
2019-02-28T15:36:06.781Z,19.70
2019-02-28T15:38:36.323Z,19.90
2019-02-28T15:41:05.764Z,19.70
2019-02-28T15:43:35.157Z,18.50
2019-02-28T15:46:04.765Z,19.00
2019-02-28T15:48:35.739Z,19.00
2019-02-28T15:51:05.421Z,19.00
2019-02-28T15:53:34.810Z,19.40
2019-02-28T15:56:12.992Z,18.80
2019-02-28T15:58:37.615Z,18.80
2019-02-28T16:01:07.601Z,18.80
2019-02-28T16:03:36.982Z,18.20
2019-02-28T16:06:06.491Z,18.30
2019-02-28T16:08:35.855Z,17.80
2019-02-28T16:11:06.223Z,17.80
2019-02-28T16:13:36.655Z,17.90
2019-02-28T16:16:07.021Z,17.70
2019-02-28T16:18:36.685Z,17.60
2019-02-28T16:21:07.174Z,17.20
2019-02-28T16:23:37.176Z,17.20
2019-02-28T16:26:06.828Z,17.40
2019-02-28T16:28:39.413Z,16.70
2019-02-28T16:31:07.885Z,16.70
2019-02-28T16:33:37.414Z,16.70
2019-02-28T16:36:06.859Z,16.80
2019-02-28T16:38:36.228Z,16.20
2019-02-28T16:41:05.878Z,16.10
2019-02-28T16:43:35.466Z,15.90
2019-02-28T16:46:06.011Z,15.70
2019-02-28T16:48:36.592Z,15.60
2019-02-28T16:51:06.611Z,15.70
2019-02-28T16:53:37.052Z,15.20
2019-02-28T16:56:07.516Z,15.20
2019-02-28T16:58:36.947Z,15.10
2019-02-28T17:01:06.522Z,15.00
2019-02-28T17:03:38.327Z,15.00
2019-02-28T17:06:07.144Z,15.00
2019-02-28T17:08:38.333Z,15.00
2019-02-28T17:11:07.848Z,15.00
2019-02-28T17:13:39.478Z,14.90
2019-02-28T17:16:10.608Z,14.80
2019-02-28T17:18:41.301Z,14.80
2019-02-28T17:21:16.700Z,14.60
2019-02-28T17:23:42.042Z,14.50
2019-02-28T17:26:11.423Z,14.70
2019-02-28T17:28:49.809Z,14.60
2019-02-28T17:31:40.350Z,14.60
2019-02-28T17:34:12.184Z,14.40
2019-02-28T17:36:44.157Z,14.40
2019-02-28T17:39:14.854Z,14.20
2019-02-28T17:41:44.612Z,14.10
2019-02-28T17:44:28.980Z,13.90
2019-02-28T17:47:07.543Z,13.90
2019-02-28T17:50:07.975Z,13.90
2019-02-28T17:52:48.941Z,13.90
2019-02-28T17:55:36.517Z,14.10
2019-02-28T17:58:17.804Z,14.00
2019-02-28T18:01:19.371Z,14.00
2019-02-28T18:04:11.103Z,13.90
2019-02-28T18:07:01.838Z,13.70
2019-02-28T18:09:44.949Z,13.70
2019-02-28T18:12:52.284Z,13.80
2019-02-28T18:15:59.664Z,13.80
2019-02-28T18:18:34.681Z,13.70
2019-02-28T18:21:28.013Z,13.60
2019-02-28T18:24:06.386Z,13.40
2019-02-28T18:27:11.598Z,13.00
2019-02-28T18:30:02.584Z,13.00
2019-02-28T18:32:34.062Z,13.00
2019-02-28T18:35:04.584Z,12.80
2019-02-28T18:37:34.338Z,12.70
2019-02-28T18:40:07.064Z,12.40
2019-02-28T18:42:37.108Z,12.10
2019-02-28T18:45:09.373Z,12.10
2019-02-28T18:47:40.769Z,12.00
2019-02-28T18:50:10.403Z,11.90
2019-02-28T18:52:39.725Z,11.70
2019-02-28T18:55:09.522Z,11.70
2019-02-28T18:57:39.216Z,11.50
2019-02-28T19:00:15.618Z,11.60
2019-02-28T19:02:45.258Z,11.50
2019-02-28T19:05:14.637Z,11.30
2019-02-28T19:07:44.330Z,11.30
2019-02-28T19:10:13.926Z,11.20
2019-02-28T19:12:43.319Z,11.20
2019-02-28T19:15:15.209Z,11.00
2019-02-28T19:17:44.799Z,11.00
2019-02-28T19:20:14.327Z,11.10
2019-02-28T19:22:43.827Z,11.00
2019-02-28T19:25:13.417Z,10.90
2019-02-28T19:27:42.868Z,10.90
2019-02-28T19:30:17.035Z,10.80
2019-02-28T19:32:46.764Z,10.90
2019-02-28T19:35:16.552Z,10.80
2019-02-28T19:37:46.167Z,10.70
2019-02-28T19:40:15.799Z,10.80
2019-02-28T19:42:45.201Z,10.80
2019-02-28T19:45:20.451Z,10.70
2019-02-28T19:47:49.830Z,10.80
2019-02-28T19:50:19.153Z,10.80
2019-02-28T19:52:48.849Z,10.80
2019-02-28T19:55:18.500Z,10.80
2019-02-28T19:57:47.879Z,10.70
2019-02-28T20:00:18.772Z,10.70
2019-02-28T20:02:48.241Z,10.70
2019-02-28T20:05:18.029Z,10.80
2019-02-28T20:07:47.689Z,10.80
2019-02-28T20:10:20.297Z,10.70
2019-02-28T20:12:49.806Z,10.60
2019-02-28T20:15:22.300Z,10.60
2019-02-28T20:17:51.848Z,10.60
2019-02-28T20:20:26.751Z,10.70
2019-02-28T20:22:56.289Z,10.60
2019-02-28T20:25:25.884Z,10.60
2019-02-28T20:27:55.350Z,10.70
2019-02-28T20:30:26.779Z,10.50
2019-02-28T20:32:56.244Z,10.50
2019-02-28T20:35:26.806Z,10.50
2019-02-28T20:37:56.631Z,10.50
2019-02-28T20:40:35.186Z,10.50
2019-02-28T20:43:04.981Z,10.60
2019-02-28T20:45:34.563Z,10.40
2019-02-28T20:48:04.369Z,10.30
2019-02-28T20:50:37.256Z,10.20
2019-02-28T20:53:06.654Z,10.00
2019-02-28T20:55:36.106Z,10.20
2019-02-28T20:58:06.060Z,10.50
2019-02-28T21:00:35.671Z,10.40
2019-02-28T21:03:05.202Z,10.40
2019-02-28T21:05:34.684Z,10.40
2019-02-28T21:08:04.221Z,10.30
2019-02-28T21:10:33.606Z,10.40
2019-02-28T21:13:03.368Z,10.50
2019-02-28T21:15:32.886Z,10.50
2019-02-28T21:18:02.682Z,10.50
2019-02-28T21:20:32.210Z,10.60
2019-02-28T21:23:01.927Z,10.60
2019-02-28T21:25:31.481Z,10.50
2019-02-28T21:28:01.048Z,10.60
2019-02-28T21:30:30.672Z,10.60
2019-02-28T21:33:00.272Z,10.50
2019-02-28T21:35:29.955Z,10.50
2019-02-28T21:37:59.668Z,10.50
2019-02-28T21:40:29.387Z,10.60
2019-02-28T21:42:59.009Z,10.60
2019-02-28T21:45:29.133Z,10.50
2019-02-28T21:47:58.866Z,10.50
2019-02-28T21:50:28.288Z,10.50
2019-02-28T21:52:58.939Z,10.50
2019-02-28T21:55:28.872Z,10.50
2019-02-28T21:57:58.509Z,10.40
2019-02-28T22:00:29.921Z,10.50
2019-02-28T22:02:59.232Z,10.60
2019-02-28T22:05:28.930Z,10.60
2019-02-28T22:07:58.458Z,10.50
2019-02-28T22:10:27.834Z,10.60
2019-02-28T22:12:57.237Z,10.70
2019-02-28T22:15:26.942Z,10.70
2019-02-28T22:17:56.284Z,10.50
2019-02-28T22:20:25.710Z,10.50
2019-02-28T22:22:55.082Z,10.50
2019-02-28T22:25:24.544Z,10.50
2019-02-28T22:27:53.908Z,10.60
2019-02-28T22:30:43.360Z,10.60
2019-02-28T22:33:21.187Z,10.50
2019-02-28T22:35:52.221Z,10.40
2019-02-28T22:38:21.549Z,10.40
2019-02-28T22:40:50.913Z,10.50
2019-02-28T22:43:20.444Z,10.50
2019-02-28T22:45:49.977Z,10.60
2019-02-28T22:48:19.453Z,10.60
2019-02-28T22:50:48.840Z,10.50
2019-02-28T22:53:18.213Z,10.50
2019-02-28T22:55:47.571Z,10.40
2019-02-28T22:58:16.985Z,10.40
2019-02-28T23:00:59.061Z,10.30
2019-02-28T23:03:30.640Z,10.30
2019-02-28T23:06:00.277Z,10.30
2019-02-28T23:08:29.669Z,10.10
2019-02-28T23:10:59.385Z,10.10
2019-02-28T23:13:28.745Z,10.10
2019-02-28T23:15:58.463Z,10.10
2019-02-28T23:18:27.922Z,10.10
2019-02-28T23:20:57.357Z,10.00
2019-02-28T23:23:26.793Z,10.10
2019-02-28T23:26:08.328Z,10.00
2019-02-28T23:28:43.790Z,9.90
2019-02-28T23:31:46.558Z,10.00
2019-02-28T23:34:24.564Z,10.00
2019-02-28T23:36:53.904Z,10.00
2019-02-28T23:39:23.209Z,10.00
2019-02-28T23:41:52.594Z,9.90
2019-02-28T23:44:23.979Z,9.90
2019-02-28T23:46:54.430Z,10.00
2019-02-28T23:49:23.854Z,10.00
2019-02-28T23:51:53.397Z,10.00
2019-02-28T23:54:22.907Z,10.00
2019-02-28T23:56:52.440Z,9.90
2019-02-28T23:59:21.794Z,9.90
